sensor_id;sensor_type;location;lat;lon;timestamp;pressure;altitude;pressure_sealevel;temperature;humidity
38400;BME280;24180;42.676;23.320;2023-03-25T00:01:06;94501.59;;;9.13;100.00
38400;BME280;24180;42.676;23.320;2023-03-25T00:03:35;94480.84;;;8.95;100.00
38400;BME280;24180;42.676;23.320;2023-03-25T00:06:06;94517.50;;;9.18;100.00
38400;BME280;24180;42.676;23.320;2023-03-25T00:08:32;94506.06;;;9.11;100.00
38400;BME280;24180;42.676;23.320;2023-03-25T00:10:59;94507.06;;;9.10;100.00
38400;BME280;24180;42.676;23.320;2023-03-25T00:13:26;94506.06;;;9.11;100.00
38400;BME280;24180;42.676;23.320;2023-03-25T00:15:52;94484.66;;;8.91;100.00
38400;BME280;24180;42.676;23.320;2023-03-25T00:18:23;94492.84;;;8.86;100.00
38400;BME280;24180;42.676;23.320;2023-03-25T00:20:49;94485.75;;;8.88;100.00
38400;BME280;24180;42.676;23.320;2023-03-25T00:23:16;94472.59;;;8.82;100.00
38400;BME280;24180;42.676;23.320;2023-03-25T00:25:41;94471.91;;;8.80;100.00
38400;BME280;24180;42.676;23.320;2023-03-25T00:28:09;94438.28;;;8.62;100.00
38400;BME280;24180;42.676;23.320;2023-03-25T00:30:37;94466.78;;;8.70;100.00
38400;BME280;24180;42.676;23.320;2023-03-25T00:33:02;94478.03;;;8.79;100.00
38400;BME280;24180;42.676;23.320;2023-03-25T00:35:28;94489.69;;;8.83;100.00
38400;BME280;24180;42.676;23.320;2023-03-25T00:37:55;94458.25;;;8.70;100.00
38400;BME280;24180;42.676;23.320;2023-03-25T00:40:32;94477.91;;;8.71;100.00
38400;BME280;24180;42.676;23.320;2023-03-25T00:43:01;94464.06;;;8.72;100.00
38400;BME280;24180;42.676;23.320;2023-03-25T00:45:28;94489.03;;;8.81;100.00
38400;BME280;24180;42.676;23.320;2023-03-25T00:47:53;94462.34;;;8.53;100.00
38400;BME280;24180;42.676;23.320;2023-03-25T00:50:19;94450.91;;;8.56;100.00
38400;BME280;24180;42.676;23.320;2023-03-25T00:52:48;94474.91;;;8.75;100.00
38400;BME280;24180;42.676;23.320;2023-03-25T00:55:14;94472.75;;;8.71;100.00
38400;BME280;24180;42.676;23.320;2023-03-25T00:57:39;94479.00;;;8.59;100.00
38400;BME280;24180;42.676;23.320;2023-03-25T01:00:09;94477.13;;;8.61;100.00
38400;BME280;24180;42.676;23.320;2023-03-25T01:02:35;94471.84;;;8.62;100.00
38400;BME280;24180;42.676;23.320;2023-03-25T01:05:01;94467.47;;;8.63;100.00
38400;BME280;24180;42.676;23.320;2023-03-25T01:07:27;94467.88;;;8.68;100.00
38400;BME280;24180;42.676;23.320;2023-03-25T01:09:56;94469.75;;;8.75;100.00
38400;BME280;24180;42.676;23.320;2023-03-25T01:12:22;94463.78;;;8.75;100.00
38400;BME280;24180;42.676;23.320;2023-03-25T01:14:48;94431.09;;;8.46;100.00
38400;BME280;24180;42.676;23.320;2023-03-25T01:17:13;94446.97;;;8.61;100.00
38400;BME280;24180;42.676;23.320;2023-03-25T01:19:39;94443.88;;;8.58;100.00
38400;BME280;24180;42.676;23.320;2023-03-25T01:22:05;94451.31;;;8.51;100.00
38400;BME280;24180;42.676;23.320;2023-03-25T01:24:30;94447.94;;;8.51;100.00
38400;BME280;24180;42.676;23.320;2023-03-25T01:26:56;94449.03;;;8.58;100.00
38400;BME280;24180;42.676;23.320;2023-03-25T01:29:22;94419.75;;;8.30;100.00
38400;BME280;24180;42.676;23.320;2023-03-25T01:31:47;94413.88;;;8.18;100.00
38400;BME280;24180;42.676;23.320;2023-03-25T01:34:14;94438.47;;;8.41;100.00
38400;BME280;24180;42.676;23.320;2023-03-25T01:36:40;94409.25;;;8.02;100.00
38400;BME280;24180;42.676;23.320;2023-03-25T01:39:12;94425.00;;;8.19;100.00
38400;BME280;24180;42.676;23.320;2023-03-25T01:41:41;94420.00;;;8.17;100.00
38400;BME280;24180;42.676;23.320;2023-03-25T01:46:54;94388.78;;;8.01;100.00
38400;BME280;24180;42.676;23.320;2023-03-25T01:49:36;94422.44;;;8.09;100.00
38400;BME280;24180;42.676;23.320;2023-03-25T01:52:19;94420.94;;;8.16;100.00
38400;BME280;24180;42.676;23.320;2023-03-25T01:54:46;94419.16;;;8.17;100.00
38400;BME280;24180;42.676;23.320;2023-03-25T01:57:18;94427.44;;;8.20;100.00
38400;BME280;24180;42.676;23.320;2023-03-25T01:59:45;94413.06;;;7.89;100.00
38400;BME280;24180;42.676;23.320;2023-03-25T02:02:11;94417.94;;;7.92;100.00
38400;BME280;24180;42.676;23.320;2023-03-25T02:04:50;94425.28;;;8.06;100.00
38400;BME280;24180;42.676;23.320;2023-03-25T02:07:30;94423.13;;;8.02;100.00
38400;BME280;24180;42.676;23.320;2023-03-25T02:10:04;94418.50;;;8.05;100.00
38400;BME280;24180;42.676;23.320;2023-03-25T02:12:30;94421.91;;;8.06;100.00
38400;BME280;24180;42.676;23.320;2023-03-25T02:14:57;94395.19;;;7.78;100.00
38400;BME280;24180;42.676;23.320;2023-03-25T02:32:14;94406.16;;;7.80;100.00
38400;BME280;24180;42.676;23.320;2023-03-25T02:34:56;94411.16;;;7.72;100.00
38400;BME280;24180;42.676;23.320;2023-03-25T02:40:35;94365.28;;;7.46;100.00
38400;BME280;24180;42.676;23.320;2023-03-25T02:43:12;94395.28;;;7.67;100.00
38400;BME280;24180;42.676;23.320;2023-03-25T02:45:44;94390.69;;;7.61;100.00
38400;BME280;24180;42.676;23.320;2023-03-25T02:48:15;94404.66;;;7.68;100.00
38400;BME280;24180;42.676;23.320;2023-03-25T02:50:50;94384.44;;;7.63;100.00
38400;BME280;24180;42.676;23.320;2023-03-25T02:53:30;94396.91;;;7.68;100.00
38400;BME280;24180;42.676;23.320;2023-03-25T02:56:02;94371.66;;;7.42;100.00
38400;BME280;24180;42.676;23.320;2023-03-25T02:58:29;94391.34;;;7.63;100.00
38400;BME280;24180;42.676;23.320;2023-03-25T03:00:55;94382.41;;;7.57;100.00
38400;BME280;24180;42.676;23.320;2023-03-25T03:03:25;94383.22;;;7.58;100.00
38400;BME280;24180;42.676;23.320;2023-03-25T03:05:55;94387.25;;;7.31;100.00
38400;BME280;24180;42.676;23.320;2023-03-25T03:11:20;94366.94;;;7.38;100.00
38400;BME280;24180;42.676;23.320;2023-03-25T03:22:00;94387.13;;;7.42;100.00
38400;BME280;24180;42.676;23.320;2023-03-25T03:24:38;94384.81;;;7.39;100.00
38400;BME280;24180;42.676;23.320;2023-03-25T03:27:12;94356.19;;;7.23;100.00
38400;BME280;24180;42.676;23.320;2023-03-25T03:29:44;94363.25;;;7.31;100.00
38400;BME280;24180;42.676;23.320;2023-03-25T03:34:45;94381.56;;;7.37;100.00
38400;BME280;24180;42.676;23.320;2023-03-25T03:37:31;94371.50;;;7.25;100.00
38400;BME280;24180;42.676;23.320;2023-03-25T03:40:02;94379.63;;;7.20;100.00
38400;BME280;24180;42.676;23.320;2023-03-25T03:42:36;94355.22;;;7.05;100.00
38400;BME280;24180;42.676;23.320;2023-03-25T03:45:18;94357.28;;;7.21;100.00
38400;BME280;24180;42.676;23.320;2023-03-25T03:47:50;94366.34;;;7.15;100.00
38400;BME280;24180;42.676;23.320;2023-03-25T03:50:21;94357.31;;;6.90;100.00
38400;BME280;24180;42.676;23.320;2023-03-25T03:55:37;94381.63;;;7.07;100.00
38400;BME280;24180;42.676;23.320;2023-03-25T03:58:08;94387.41;;;6.90;100.00
38400;BME280;24180;42.676;23.320;2023-03-25T04:01:06;94383.69;;;7.13;100.00
38400;BME280;24180;42.676;23.320;2023-03-25T04:03:48;94374.22;;;7.14;100.00
38400;BME280;24180;42.676;23.320;2023-03-25T04:06:32;94361.56;;;7.01;100.00
38400;BME280;24180;42.676;23.320;2023-03-25T04:11:47;94382.06;;;7.12;100.00
38400;BME280;24180;42.676;23.320;2023-03-25T04:14:15;94357.91;;;7.03;100.00
38400;BME280;24180;42.676;23.320;2023-03-25T04:16:41;94384.66;;;7.22;100.00
38400;BME280;24180;42.676;23.320;2023-03-25T04:19:09;94382.88;;;7.22;100.00
38400;BME280;24180;42.676;23.320;2023-03-25T04:21:37;94375.25;;;7.11;100.00
38400;BME280;24180;42.676;23.320;2023-03-25T04:24:03;94371.63;;;7.14;100.00
38400;BME280;24180;42.676;23.320;2023-03-25T04:26:33;94352.63;;;7.05;100.00
38400;BME280;24180;42.676;23.320;2023-03-25T04:29:02;94376.94;;;7.22;100.00
38400;BME280;24180;42.676;23.320;2023-03-25T04:31:29;94350.34;;;7.12;100.00
38400;BME280;24180;42.676;23.320;2023-03-25T04:33:58;94372.56;;;7.22;100.00
38400;BME280;24180;42.676;23.320;2023-03-25T04:36:25;94372.19;;;7.17;100.00
38400;BME280;24180;42.676;23.320;2023-03-25T04:38:57;94372.84;;;7.19;100.00
38400;BME280;24180;42.676;23.320;2023-03-25T04:41:23;94359.97;;;7.19;100.00
38400;BME280;24180;42.676;23.320;2023-03-25T04:43:49;94393.09;;;7.33;100.00
38400;BME280;24180;42.676;23.320;2023-03-25T04:46:16;94360.91;;;7.18;100.00
38400;BME280;24180;42.676;23.320;2023-03-25T04:48:42;94397.84;;;7.47;100.00
38400;BME280;24180;42.676;23.320;2023-03-25T04:51:10;94366.38;;;7.25;100.00
38400;BME280;24180;42.676;23.320;2023-03-25T04:53:36;94395.50;;;7.25;100.00
38400;BME280;24180;42.676;23.320;2023-03-25T04:56:04;94386.97;;;7.25;100.00
38400;BME280;24180;42.676;23.320;2023-03-25T04:58:30;94364.97;;;7.11;100.00
38400;BME280;24180;42.676;23.320;2023-03-25T05:00:56;94372.69;;;7.11;100.00
38400;BME280;24180;42.676;23.320;2023-03-25T05:03:30;94365.53;;;7.24;100.00
38400;BME280;24180;42.676;23.320;2023-03-25T05:05:55;94384.84;;;7.68;100.00
38400;BME280;24180;42.676;23.320;2023-03-25T05:08:21;94373.72;;;7.48;100.00
38400;BME280;24180;42.676;23.320;2023-03-25T05:10:47;94390.00;;;7.68;100.00
38400;BME280;24180;42.676;23.320;2023-03-25T05:13:12;94400.31;;;7.78;100.00
38400;BME280;24180;42.676;23.320;2023-03-25T05:15:38;94397.06;;;7.76;100.00
38400;BME280;24180;42.676;23.320;2023-03-25T05:18:08;94408.19;;;7.86;100.00
38400;BME280;24180;42.676;23.320;2023-03-25T05:20:38;94371.03;;;7.69;100.00
38400;BME280;24180;42.676;23.320;2023-03-25T05:23:05;94402.75;;;7.89;100.00
38400;BME280;24180;42.676;23.320;2023-03-25T05:25:39;94402.88;;;8.07;100.00
38400;BME280;24180;42.676;23.320;2023-03-25T05:28:05;94404.38;;;7.99;100.00
38400;BME280;24180;42.676;23.320;2023-03-25T05:30:35;94384.84;;;7.97;100.00
38400;BME280;24180;42.676;23.320;2023-03-25T05:33:07;94403.97;;;8.14;100.00
38400;BME280;24180;42.676;23.320;2023-03-25T05:35:32;94396.38;;;8.12;100.00
38400;BME280;24180;42.676;23.320;2023-03-25T05:37:58;94372.75;;;8.07;100.00
38400;BME280;24180;42.676;23.320;2023-03-25T05:40:23;94389.16;;;8.16;100.00
38400;BME280;24180;42.676;23.320;2023-03-25T05:42:49;94402.19;;;8.43;100.00
38400;BME280;24180;42.676;23.320;2023-03-25T05:45:19;94389.16;;;8.35;100.00
38400;BME280;24180;42.676;23.320;2023-03-25T05:47:44;94406.41;;;8.44;100.00
38400;BME280;24180;42.676;23.320;2023-03-25T05:50:10;94390.38;;;8.40;100.00
38400;BME280;24180;42.676;23.320;2023-03-25T05:52:36;94386.69;;;8.43;100.00
38400;BME280;24180;42.676;23.320;2023-03-25T05:55:05;94410.31;;;8.58;100.00
38400;BME280;24180;42.676;23.320;2023-03-25T05:57:31;94406.09;;;8.47;100.00
38400;BME280;24180;42.676;23.320;2023-03-25T05:59:56;94346.84;;;8.18;100.00
38400;BME280;24180;42.676;23.320;2023-03-25T06:02:22;94382.19;;;8.55;100.00
38400;BME280;24180;42.676;23.320;2023-03-25T06:04:48;94406.34;;;9.00;100.00
38400;BME280;24180;42.676;23.320;2023-03-25T06:07:15;94381.63;;;8.98;100.00
38400;BME280;24180;42.676;23.320;2023-03-25T06:09:45;94370.38;;;9.16;100.00
38400;BME280;24180;42.676;23.320;2023-03-25T06:12:16;94375.44;;;9.18;100.00
38400;BME280;24180;42.676;23.320;2023-03-25T06:14:42;94402.13;;;9.54;100.00
38400;BME280;24180;42.676;23.320;2023-03-25T06:17:10;94330.41;;;9.20;100.00
38400;BME280;24180;42.676;23.320;2023-03-25T06:19:36;94380.50;;;9.55;100.00
38400;BME280;24180;42.676;23.320;2023-03-25T06:22:05;94389.09;;;9.73;100.00
38400;BME280;24180;42.676;23.320;2023-03-25T06:24:36;94409.91;;;9.89;100.00
38400;BME280;24180;42.676;23.320;2023-03-25T06:27:09;94405.47;;;9.99;100.00
38400;BME280;24180;42.676;23.320;2023-03-25T06:29:36;94407.13;;;10.18;100.00
38400;BME280;24180;42.676;23.320;2023-03-25T06:32:03;94397.06;;;10.32;100.00
38400;BME280;24180;42.676;23.320;2023-03-25T06:34:29;94402.53;;;10.29;100.00
38400;BME280;24180;42.676;23.320;2023-03-25T06:36:57;94387.06;;;10.38;100.00
38400;BME280;24180;42.676;23.320;2023-03-25T06:39:22;94403.06;;;10.59;100.00
38400;BME280;24180;42.676;23.320;2023-03-25T06:41:48;94416.78;;;10.77;100.00
38400;BME280;24180;42.676;23.320;2023-03-25T06:44:13;94418.09;;;10.81;100.00
38400;BME280;24180;42.676;23.320;2023-03-25T06:46:39;94391.50;;;10.71;100.00
38400;BME280;24180;42.676;23.320;2023-03-25T06:49:04;94403.28;;;10.91;100.00
38400;BME280;24180;42.676;23.320;2023-03-25T06:51:30;94381.84;;;10.81;100.00
38400;BME280;24180;42.676;23.320;2023-03-25T06:53:55;94403.63;;;11.04;100.00
38400;BME280;24180;42.676;23.320;2023-03-25T06:56:21;94367.66;;;10.93;100.00
38400;BME280;24180;42.676;23.320;2023-03-25T06:58:46;94389.75;;;11.13;100.00
38400;BME280;24180;42.676;23.320;2023-03-25T07:01:11;94412.03;;;11.32;100.00
38400;BME280;24180;42.676;23.320;2023-03-25T07:03:37;94376.84;;;11.21;100.00
38400;BME280;24180;42.676;23.320;2023-03-25T07:06:04;94412.19;;;11.72;100.00
38400;BME280;24180;42.676;23.320;2023-03-25T07:08:30;94415.47;;;11.91;100.00
38400;BME280;24180;42.676;23.320;2023-03-25T07:11:06;94414.47;;;11.92;100.00
38400;BME280;24180;42.676;23.320;2023-03-25T07:13:32;94410.44;;;11.97;100.00
38400;BME280;24180;42.676;23.320;2023-03-25T07:15:59;94406.56;;;12.01;100.00
38400;BME280;24180;42.676;23.320;2023-03-25T07:18:25;94398.94;;;12.08;100.00
38400;BME280;24180;42.676;23.320;2023-03-25T07:20:51;94399.75;;;12.25;100.00
38400;BME280;24180;42.676;23.320;2023-03-25T07:23:16;94399.44;;;12.44;100.00
38400;BME280;24180;42.676;23.320;2023-03-25T07:25:42;94413.22;;;12.60;100.00
38400;BME280;24180;42.676;23.320;2023-03-25T07:28:08;94407.19;;;12.68;100.00
38400;BME280;24180;42.676;23.320;2023-03-25T07:30:33;94386.41;;;12.76;100.00
38400;BME280;24180;42.676;23.320;2023-03-25T07:32:58;94389.44;;;12.96;100.00
38400;BME280;24180;42.676;23.320;2023-03-25T07:35:24;94378.72;;;12.99;100.00
38400;BME280;24180;42.676;23.320;2023-03-25T07:37:50;94377.22;;;13.21;100.00
38400;BME280;24180;42.676;23.320;2023-03-25T07:40:15;94390.81;;;13.39;100.00
38400;BME280;24180;42.676;23.320;2023-03-25T07:42:41;94388.28;;;13.53;100.00
38400;BME280;24180;42.676;23.320;2023-03-25T07:45:08;94399.13;;;13.65;100.00
38400;BME280;24180;42.676;23.320;2023-03-25T07:47:33;94365.25;;;13.73;100.00
38400;BME280;24180;42.676;23.320;2023-03-25T07:49:59;94389.03;;;13.93;100.00
38400;BME280;24180;42.676;23.320;2023-03-25T07:52:24;94374.94;;;13.87;100.00
38400;BME280;24180;42.676;23.320;2023-03-25T07:54:50;94365.81;;;13.91;100.00
38400;BME280;24180;42.676;23.320;2023-03-25T07:57:15;94363.19;;;13.91;100.00
38400;BME280;24180;42.676;23.320;2023-03-25T07:59:40;94374.13;;;13.87;100.00
38400;BME280;24180;42.676;23.320;2023-03-25T08:02:07;94364.75;;;14.00;100.00
38400;BME280;24180;42.676;23.320;2023-03-25T08:04:33;94376.22;;;14.37;100.00
38400;BME280;24180;42.676;23.320;2023-03-25T08:06:58;94367.28;;;14.69;100.00
38400;BME280;24180;42.676;23.320;2023-03-25T08:09:24;94372.09;;;14.94;100.00
38400;BME280;24180;42.676;23.320;2023-03-25T08:11:50;94358.59;;;15.06;100.00
38400;BME280;24180;42.676;23.320;2023-03-25T08:14:16;94358.84;;;15.25;100.00
38400;BME280;24180;42.676;23.320;2023-03-25T08:16:41;94352.78;;;15.69;100.00
38400;BME280;24180;42.676;23.320;2023-03-25T08:19:06;94356.88;;;16.14;100.00
38400;BME280;24180;42.676;23.320;2023-03-25T08:21:32;94352.59;;;16.55;100.00
38400;BME280;24180;42.676;23.320;2023-03-25T08:23:58;94346.81;;;16.81;98.34
38400;BME280;24180;42.676;23.320;2023-03-25T08:26:27;94344.00;;;17.17;96.63
38400;BME280;24180;42.676;23.320;2023-03-25T08:28:54;94345.91;;;17.43;95.13
38400;BME280;24180;42.676;23.320;2023-03-25T08:31:22;94329.72;;;17.26;94.26
38400;BME280;24180;42.676;23.320;2023-03-25T08:33:48;94352.59;;;17.45;94.04
38400;BME280;24180;42.676;23.320;2023-03-25T08:36:14;94341.56;;;17.15;93.46
38400;BME280;24180;42.676;23.320;2023-03-25T08:38:47;94335.38;;;16.89;96.55
38400;BME280;24180;42.676;23.320;2023-03-25T08:41:13;94321.72;;;16.93;95.88
38400;BME280;24180;42.676;23.320;2023-03-25T08:43:39;94324.94;;;16.95;95.70
38400;BME280;24180;42.676;23.320;2023-03-25T08:46:04;94318.09;;;16.94;96.07
38400;BME280;24180;42.676;23.320;2023-03-25T08:48:30;94328.56;;;16.94;95.48
38400;BME280;24180;42.676;23.320;2023-03-25T08:50:55;94328.81;;;17.06;95.18
38400;BME280;24180;42.676;23.320;2023-03-25T08:53:21;94328.66;;;17.14;93.70
38400;BME280;24180;42.676;23.320;2023-03-25T08:55:54;94308.75;;;16.78;95.33
38400;BME280;24180;42.676;23.320;2023-03-25T08:58:20;94304.66;;;16.69;95.74
38400;BME280;24180;42.676;23.320;2023-03-25T09:00:47;94319.59;;;16.75;95.20
38400;BME280;24180;42.676;23.320;2023-03-25T09:03:13;94311.47;;;16.64;95.34
38400;BME280;24180;42.676;23.320;2023-03-25T09:05:38;94305.75;;;16.81;95.20
38400;BME280;24180;42.676;23.320;2023-03-25T09:08:04;94293.47;;;16.75;93.82
38400;BME280;24180;42.676;23.320;2023-03-25T09:10:30;94295.06;;;17.17;93.22
38400;BME280;24180;42.676;23.320;2023-03-25T09:12:56;94298.31;;;17.60;90.04
38400;BME280;24180;42.676;23.320;2023-03-25T09:15:21;94290.31;;;18.08;86.42
38400;BME280;24180;42.676;23.320;2023-03-25T09:17:47;94302.81;;;18.25;81.42
38400;BME280;24180;42.676;23.320;2023-03-25T09:20:13;94288.94;;;18.25;79.04
38400;BME280;24180;42.676;23.320;2023-03-25T09:22:39;94293.16;;;18.39;77.61
38400;BME280;24180;42.676;23.320;2023-03-25T09:25:05;94273.00;;;18.33;78.20
38400;BME280;24180;42.676;23.320;2023-03-25T09:27:31;94293.97;;;18.27;78.88
38400;BME280;24180;42.676;23.320;2023-03-25T09:29:57;94264.94;;;18.41;78.94
38400;BME280;24180;42.676;23.320;2023-03-25T09:32:23;94292.78;;;18.68;77.88
38400;BME280;24180;42.676;23.320;2023-03-25T09:34:48;94295.41;;;18.55;79.96
38400;BME280;24180;42.676;23.320;2023-03-25T09:37:14;94280.66;;;18.48;80.65
38400;BME280;24180;42.676;23.320;2023-03-25T09:39:39;94275.22;;;18.49;78.32
38400;BME280;24180;42.676;23.320;2023-03-25T09:47:19;94250.38;;;18.78;71.90
38400;BME280;24180;42.676;23.320;2023-03-25T09:49:47;94250.50;;;19.09;70.28
38400;BME280;24180;42.676;23.320;2023-03-25T09:52:23;94271.06;;;19.63;67.99
38400;BME280;24180;42.676;23.320;2023-03-25T09:54:59;94247.78;;;20.05;65.90
38400;BME280;24180;42.676;23.320;2023-03-25T09:57:30;94244.13;;;20.55;63.29
38400;BME280;24180;42.676;23.320;2023-03-25T09:59:59;94267.88;;;21.95;57.93
38400;BME280;24180;42.676;23.320;2023-03-25T10:08:56;94258.69;;;21.37;52.52
38400;BME280;24180;42.676;23.320;2023-03-25T10:11:05;94256.69;;;21.15;49.88
38400;BME280;24180;42.676;23.320;2023-03-25T10:21:39;94233.13;;;20.83;50.01
38400;BME280;24180;42.676;23.320;2023-03-25T10:27:04;94217.59;;;23.41;43.41
38400;BME280;24180;42.676;23.320;2023-03-25T10:29:46;94213.38;;;22.18;42.12
38400;BME280;24180;42.676;23.320;2023-03-25T10:32:23;94223.81;;;21.54;43.53
38400;BME280;24180;42.676;23.320;2023-03-25T10:34:54;94211.31;;;21.49;43.63
38400;BME280;24180;42.676;23.320;2023-03-25T10:37:32;94204.94;;;21.38;43.64
38400;BME280;24180;42.676;23.320;2023-03-25T10:40:32;94211.13;;;21.62;42.93
38400;BME280;24180;42.676;23.320;2023-03-25T10:43:13;94193.41;;;22.46;41.74
38400;BME280;24180;42.676;23.320;2023-03-25T10:45:42;94195.56;;;24.75;38.43
38400;BME280;24180;42.676;23.320;2023-03-25T10:48:23;94181.63;;;25.45;37.44
38400;BME280;24180;42.676;23.320;2023-03-25T10:50:51;94192.38;;;26.82;33.40
38400;BME280;24180;42.676;23.320;2023-03-25T10:53:24;94180.31;;;27.89;32.22
38400;BME280;24180;42.676;23.320;2023-03-25T10:55:57;94172.06;;;27.85;31.55
38400;BME280;24180;42.676;23.320;2023-03-25T10:58:26;94171.66;;;26.79;32.91
38400;BME280;24180;42.676;23.320;2023-03-25T11:00:52;94167.41;;;26.09;35.14
38400;BME280;24180;42.676;23.320;2023-03-25T11:03:25;94170.63;;;26.12;34.78
38400;BME280;24180;42.676;23.320;2023-03-25T11:05:52;94160.50;;;26.35;35.52
38400;BME280;24180;42.676;23.320;2023-03-25T11:08:19;94166.41;;;27.47;33.56
38400;BME280;24180;42.676;23.320;2023-03-25T11:10:49;94160.91;;;27.99;33.31
38400;BME280;24180;42.676;23.320;2023-03-25T11:13:26;94128.84;;;27.28;33.55
38400;BME280;24180;42.676;23.320;2023-03-25T11:15:53;94146.75;;;26.48;34.22
38400;BME280;24180;42.676;23.320;2023-03-25T11:18:29;94141.13;;;26.08;34.51
38400;BME280;24180;42.676;23.320;2023-03-25T11:21:10;94151.13;;;25.42;36.32
38400;BME280;24180;42.676;23.320;2023-03-25T11:23:47;94132.63;;;24.22;37.53
38400;BME280;24180;42.676;23.320;2023-03-25T11:26:23;94139.94;;;23.42;40.01
38400;BME280;24180;42.676;23.320;2023-03-25T11:28:53;94122.56;;;23.57;40.55
38400;BME280;24180;42.676;23.320;2023-03-25T11:31:21;94107.75;;;24.61;39.12
38400;BME280;24180;42.676;23.320;2023-03-25T11:36:52;94117.69;;;28.93;32.28
38400;BME280;24180;42.676;23.320;2023-03-25T11:41:47;94124.16;;;24.42;35.59
38400;BME280;24180;42.676;23.320;2023-03-25T11:44:27;94075.63;;;23.64;37.60
38400;BME280;24180;42.676;23.320;2023-03-25T11:46:56;94099.25;;;24.21;36.27
38400;BME280;24180;42.676;23.320;2023-03-25T11:49:23;94095.09;;;24.85;35.05
38400;BME280;24180;42.676;23.320;2023-03-25T11:51:56;94108.06;;;25.57;34.68
38400;BME280;24180;42.676;23.320;2023-03-25T11:54:24;94094.47;;;24.78;35.66
38400;BME280;24180;42.676;23.320;2023-03-25T11:56:53;94076.28;;;24.43;35.83
38400;BME280;24180;42.676;23.320;2023-03-25T11:59:27;94093.63;;;24.56;35.96
38400;BME280;24180;42.676;23.320;2023-03-25T12:02:23;94064.78;;;24.54;37.01
38400;BME280;24180;42.676;23.320;2023-03-25T12:05:02;94078.56;;;24.35;36.06
38400;BME280;24180;42.676;23.320;2023-03-25T12:07:29;94087.03;;;24.37;36.99
38400;BME280;24180;42.676;23.320;2023-03-25T12:10:05;94072.03;;;23.54;38.02
38400;BME280;24180;42.676;23.320;2023-03-25T12:12:42;94065.41;;;22.95;39.13
38400;BME280;24180;42.676;23.320;2023-03-25T12:26:09;94096.97;;;21.09;43.64
38400;BME280;24180;42.676;23.320;2023-03-25T12:34:33;94103.34;;;21.01;42.43
38400;BME280;24180;42.676;23.320;2023-03-25T12:37:26;94100.19;;;20.81;43.47
38400;BME280;24180;42.676;23.320;2023-03-25T12:48:37;94092.91;;;20.94;43.36
38400;BME280;24180;42.676;23.320;2023-03-25T12:51:38;94095.09;;;21.27;43.50
38400;BME280;24180;42.676;23.320;2023-03-25T13:05:33;94089.28;;;19.80;46.23
38400;BME280;24180;42.676;23.320;2023-03-25T13:10:57;94074.72;;;19.84;47.44
38400;BME280;24180;42.676;23.320;2023-03-25T13:13:25;94081.78;;;19.83;47.53
38400;BME280;24180;42.676;23.320;2023-03-25T13:16:08;94091.13;;;19.79;47.32
38400;BME280;24180;42.676;23.320;2023-03-25T13:18:43;94096.00;;;19.76;48.09
38400;BME280;24180;42.676;23.320;2023-03-25T13:21:50;94098.91;;;19.68;49.00
38400;BME280;24180;42.676;23.320;2023-03-25T13:26:44;94094.44;;;19.43;52.40
38400;BME280;24180;42.676;23.320;2023-03-25T13:29:34;94095.66;;;19.41;51.15
38400;BME280;24180;42.676;23.320;2023-03-25T13:32:09;94093.47;;;19.31;51.67
38400;BME280;24180;42.676;23.320;2023-03-25T13:34:40;94105.16;;;19.35;52.24
38400;BME280;24180;42.676;23.320;2023-03-25T13:37:30;94098.72;;;19.38;53.00
38400;BME280;24180;42.676;23.320;2023-03-25T13:42:49;94099.91;;;19.35;55.30
38400;BME280;24180;42.676;23.320;2023-03-25T13:45:22;94085.66;;;18.93;52.63
38400;BME280;24180;42.676;23.320;2023-03-25T13:47:52;94113.44;;;18.69;58.62
38400;BME280;24180;42.676;23.320;2023-03-25T13:50:25;94119.38;;;18.32;67.00
38400;BME280;24180;42.676;23.320;2023-03-25T13:56:33;94141.22;;;17.93;76.30
38400;BME280;24180;42.676;23.320;2023-03-25T14:15:11;94095.00;;;16.39;100.00
38400;BME280;24180;42.676;23.320;2023-03-25T14:17:40;94155.69;;;16.76;100.00
38400;BME280;24180;42.676;23.320;2023-03-25T14:20:09;94155.69;;;16.76;100.00
38400;BME280;24180;42.676;23.320;2023-03-25T14:22:39;94128.97;;;16.39;100.00
38400;BME280;24180;42.676;23.320;2023-03-25T14:25:18;94127.84;;;16.21;100.00
38400;BME280;24180;42.676;23.320;2023-03-25T14:27:48;94147.19;;;16.26;100.00
38400;BME280;24180;42.676;23.320;2023-03-25T14:30:19;94124.56;;;16.06;100.00
38400;BME280;24180;42.676;23.320;2023-03-25T14:32:46;94128.00;;;15.78;100.00
38400;BME280;24180;42.676;23.320;2023-03-25T14:38:16;94121.22;;;15.56;100.00
38400;BME280;24180;42.676;23.320;2023-03-25T14:43:22;94096.59;;;15.44;100.00
38400;BME280;24180;42.676;23.320;2023-03-25T14:48:42;94024.81;;;15.27;100.00
38400;BME280;24180;42.676;23.320;2023-03-25T14:59:26;94015.47;;;15.60;100.00
38400;BME280;24180;42.676;23.320;2023-03-25T15:01:53;94054.84;;;16.06;100.00
38400;BME280;24180;42.676;23.320;2023-03-25T15:04:33;94059.66;;;16.03;100.00
38400;BME280;24180;42.676;23.320;2023-03-25T15:07:01;94046.44;;;16.11;100.00
38400;BME280;24180;42.676;23.320;2023-03-25T15:09:28;94057.38;;;16.34;100.00
38400;BME280;24180;42.676;23.320;2023-03-25T15:12:00;94048.16;;;16.38;100.00
38400;BME280;24180;42.676;23.320;2023-03-25T15:14:33;94045.94;;;15.94;100.00
38400;BME280;24180;42.676;23.320;2023-03-25T15:17:06;94046.78;;;15.60;100.00
38400;BME280;24180;42.676;23.320;2023-03-25T15:20:26;94047.13;;;15.57;100.00
38400;BME280;24180;42.676;23.320;2023-03-25T15:22:40;94022.25;;;15.55;100.00
38400;BME280;24180;42.676;23.320;2023-03-25T15:25:14;94023.13;;;15.68;100.00
38400;BME280;24180;42.676;23.320;2023-03-25T15:28:14;94034.91;;;15.92;100.00
38400;BME280;24180;42.676;23.320;2023-03-25T15:30:56;94039.25;;;15.78;100.00